sensor_id;sensor_type;location;lat;lon;timestamp;P1;durP1;ratioP1;P2;durP2;ratioP2
27127;SDS011;14660;49.008;8.390;2022-10-16T00:01:29;3.30;;;1.30;;
27127;SDS011;14660;49.008;8.390;2022-10-16T00:03:58;2.47;;;1.27;;
27127;SDS011;14660;49.008;8.390;2022-10-16T00:06:26;2.17;;;1.15;;
27127;SDS011;14660;49.008;8.390;2022-10-16T00:08:53;3.30;;;1.77;;
27127;SDS011;14660;49.008;8.390;2022-10-16T00:11:26;1.75;;;1.38;;
27127;SDS011;14660;49.008;8.390;2022-10-16T00:14:00;3.42;;;1.65;;
27127;SDS011;14660;49.008;8.390;2022-10-16T00:16:28;1.67;;;0.90;;
27127;SDS011;14660;49.008;8.390;2022-10-16T00:18:55;5.85;;;1.50;;
27127;SDS011;14660;49.008;8.390;2022-10-16T00:21:24;1.92;;;1.10;;
27127;SDS011;14660;49.008;8.390;2022-10-16T00:23:54;4.18;;;1.42;;
27127;SDS011;14660;49.008;8.390;2022-10-16T00:26:24;1.33;;;1.00;;
27127;SDS011;14660;49.008;8.390;2022-10-16T00:28:52;3.45;;;0.82;;
27127;SDS011;14660;49.008;8.390;2022-10-16T00:31:20;3.92;;;1.23;;
27127;SDS011;14660;49.008;8.390;2022-10-16T00:33:49;2.47;;;1.38;;
27127;SDS011;14660;49.008;8.390;2022-10-16T00:36:17;1.50;;;1.00;;
27127;SDS011;14660;49.008;8.390;2022-10-16T00:38:46;0.85;;;0.70;;
27127;SDS011;14660;49.008;8.390;2022-10-16T00:41:14;1.92;;;1.08;;
27127;SDS011;14660;49.008;8.390;2022-10-16T00:49:12;2.10;;;0.90;;
27127;SDS011;14660;49.008;8.390;2022-10-16T00:54:26;2.45;;;1.63;;
27127;SDS011;14660;49.008;8.390;2022-10-16T00:56:56;1.55;;;0.75;;
27127;SDS011;14660;49.008;8.390;2022-10-16T00:59:30;2.90;;;1.20;;
27127;SDS011;14660;49.008;8.390;2022-10-16T01:02:00;1.75;;;0.93;;
27127;SDS011;14660;49.008;8.390;2022-10-16T01:04:27;1.70;;;1.08;;
27127;SDS011;14660;49.008;8.390;2022-10-16T01:19:09;3.58;;;1.20;;
27127;SDS011;14660;49.008;8.390;2022-10-16T01:21:42;3.72;;;1.33;;
27127;SDS011;14660;49.008;8.390;2022-10-16T01:27:27;2.75;;;1.75;;
27127;SDS011;14660;49.008;8.390;2022-10-16T01:33:35;2.10;;;1.10;;
27127;SDS011;14660;49.008;8.390;2022-10-16T01:35:58;8.40;;;1.23;;
27127;SDS011;14660;49.008;8.390;2022-10-16T01:41:18;6.65;;;2.08;;
27127;SDS011;14660;49.008;8.390;2022-10-16T01:43:57;2.42;;;1.20;;
27127;SDS011;14660;49.008;8.390;2022-10-16T01:46:46;1.63;;;1.10;;
27127;SDS011;14660;49.008;8.390;2022-10-16T01:49:16;2.65;;;1.30;;
27127;SDS011;14660;49.008;8.390;2022-10-16T01:51:50;1.20;;;0.90;;
27127;SDS011;14660;49.008;8.390;2022-10-16T01:54:23;1.95;;;1.00;;
27127;SDS011;14660;49.008;8.390;2022-10-16T01:56:54;3.30;;;1.25;;
27127;SDS011;14660;49.008;8.390;2022-10-16T01:59:23;3.13;;;1.42;;
27127;SDS011;14660;49.008;8.390;2022-10-16T02:01:56;2.45;;;1.80;;
27127;SDS011;14660;49.008;8.390;2022-10-16T02:04:31;3.40;;;1.80;;
27127;SDS011;14660;49.008;8.390;2022-10-16T02:07:02;6.68;;;2.60;;
27127;SDS011;14660;49.008;8.390;2022-10-16T02:09:32;2.90;;;1.80;;
27127;SDS011;14660;49.008;8.390;2022-10-16T02:12:00;2.60;;;1.73;;
27127;SDS011;14660;49.008;8.390;2022-10-16T02:14:31;4.25;;;2.28;;
27127;SDS011;14660;49.008;8.390;2022-10-16T02:16:59;3.17;;;1.70;;
27127;SDS011;14660;49.008;8.390;2022-10-16T02:19:26;3.35;;;1.80;;
27127;SDS011;14660;49.008;8.390;2022-10-16T02:21:57;3.10;;;1.90;;
27127;SDS011;14660;49.008;8.390;2022-10-16T02:24:47;7.30;;;2.45;;
27127;SDS011;14660;49.008;8.390;2022-10-16T02:27:40;4.45;;;2.72;;
27127;SDS011;14660;49.008;8.390;2022-10-16T02:30:58;4.88;;;1.92;;
27127;SDS011;14660;49.008;8.390;2022-10-16T02:33:22;5.05;;;2.95;;
27127;SDS011;14660;49.008;8.390;2022-10-16T02:35:51;1.98;;;1.55;;
27127;SDS011;14660;49.008;8.390;2022-10-16T02:38:20;3.22;;;1.98;;
27127;SDS011;14660;49.008;8.390;2022-10-16T02:40:50;3.40;;;1.50;;
27127;SDS011;14660;49.008;8.390;2022-10-16T02:43:25;6.85;;;1.92;;
27127;SDS011;14660;49.008;8.390;2022-10-16T02:45:53;2.97;;;1.10;;
27127;SDS011;14660;49.008;8.390;2022-10-16T02:48:20;1.40;;;1.13;;
27127;SDS011;14660;49.008;8.390;2022-10-16T02:50:47;2.05;;;1.08;;
27127;SDS011;14660;49.008;8.390;2022-10-16T02:53:14;2.20;;;1.20;;
27127;SDS011;14660;49.008;8.390;2022-10-16T02:55:41;1.63;;;1.52;;
27127;SDS011;14660;49.008;8.390;2022-10-16T02:58:08;1.42;;;0.80;;
27127;SDS011;14660;49.008;8.390;2022-10-16T03:00:38;1.40;;;1.00;;
27127;SDS011;14660;49.008;8.390;2022-10-16T03:03:05;1.23;;;0.80;;
27127;SDS011;14660;49.008;8.390;2022-10-16T03:05:31;2.15;;;1.00;;
27127;SDS011;14660;49.008;8.390;2022-10-16T03:08:02;1.73;;;0.90;;
27127;SDS011;14660;49.008;8.390;2022-10-16T03:10:29;1.70;;;0.90;;
27127;SDS011;14660;49.008;8.390;2022-10-16T03:12:56;1.48;;;0.82;;
27127;SDS011;14660;49.008;8.390;2022-10-16T03:15:22;2.50;;;1.20;;
27127;SDS011;14660;49.008;8.390;2022-10-16T03:17:49;1.90;;;1.08;;
27127;SDS011;14660;49.008;8.390;2022-10-16T03:20:16;4.38;;;1.10;;
27127;SDS011;14660;49.008;8.390;2022-10-16T03:22:43;1.83;;;0.95;;
27127;SDS011;14660;49.008;8.390;2022-10-16T03:25:10;2.63;;;0.80;;
27127;SDS011;14660;49.008;8.390;2022-10-16T03:27:38;1.55;;;1.02;;
27127;SDS011;14660;49.008;8.390;2022-10-16T03:30:04;4.70;;;1.30;;
27127;SDS011;14660;49.008;8.390;2022-10-16T03:32:32;1.50;;;1.00;;
27127;SDS011;14660;49.008;8.390;2022-10-16T03:34:57;2.55;;;1.02;;
27127;SDS011;14660;49.008;8.390;2022-10-16T03:37:24;3.45;;;1.13;;
27127;SDS011;14660;49.008;8.390;2022-10-16T03:39:52;1.70;;;0.90;;
27127;SDS011;14660;49.008;8.390;2022-10-16T03:42:21;1.88;;;0.95;;
27127;SDS011;14660;49.008;8.390;2022-10-16T03:44:50;1.63;;;0.90;;
27127;SDS011;14660;49.008;8.390;2022-10-16T03:47:17;1.67;;;1.50;;
27127;SDS011;14660;49.008;8.390;2022-10-16T03:49:47;1.77;;;1.42;;
27127;SDS011;14660;49.008;8.390;2022-10-16T03:52:17;6.38;;;1.45;;
27127;SDS011;14660;49.008;8.390;2022-10-16T03:54:44;2.30;;;1.10;;
27127;SDS011;14660;49.008;8.390;2022-10-16T03:57:11;2.65;;;1.30;;
27127;SDS011;14660;49.008;8.390;2022-10-16T03:59:39;3.03;;;1.25;;
27127;SDS011;14660;49.008;8.390;2022-10-16T04:02:06;2.10;;;1.13;;
27127;SDS011;14660;49.008;8.390;2022-10-16T04:04:33;2.53;;;1.38;;
27127;SDS011;14660;49.008;8.390;2022-10-16T04:07:00;5.10;;;1.33;;
27127;SDS011;14660;49.008;8.390;2022-10-16T04:09:26;2.80;;;1.50;;
27127;SDS011;14660;49.008;8.390;2022-10-16T04:11:54;2.38;;;1.25;;
27127;SDS011;14660;49.008;8.390;2022-10-16T04:14:21;2.55;;;1.58;;
27127;SDS011;14660;49.008;8.390;2022-10-16T04:16:48;3.13;;;1.50;;
27127;SDS011;14660;49.008;8.390;2022-10-16T04:19:16;1.23;;;1.00;;
27127;SDS011;14660;49.008;8.390;2022-10-16T04:21:43;2.60;;;1.58;;
27127;SDS011;14660;49.008;8.390;2022-10-16T04:24:09;2.80;;;1.52;;
27127;SDS011;14660;49.008;8.390;2022-10-16T04:26:37;2.25;;;1.73;;
27127;SDS011;14660;49.008;8.390;2022-10-16T04:29:04;3.75;;;1.35;;
27127;SDS011;14660;49.008;8.390;2022-10-16T04:31:32;1.35;;;1.20;;
27127;SDS011;14660;49.008;8.390;2022-10-16T04:34:07;1.88;;;1.23;;
27127;SDS011;14660;49.008;8.390;2022-10-16T04:36:34;2.13;;;1.35;;
27127;SDS011;14660;49.008;8.390;2022-10-16T04:39:02;2.47;;;1.15;;
27127;SDS011;14660;49.008;8.390;2022-10-16T04:41:30;2.85;;;1.90;;
27127;SDS011;14660;49.008;8.390;2022-10-16T04:43:58;3.75;;;2.60;;
27127;SDS011;14660;49.008;8.390;2022-10-16T04:46:25;3.85;;;1.88;;
27127;SDS011;14660;49.008;8.390;2022-10-16T04:48:52;2.75;;;1.40;;
27127;SDS011;14660;49.008;8.390;2022-10-16T04:51:20;4.22;;;2.40;;
27127;SDS011;14660;49.008;8.390;2022-10-16T04:53:47;4.63;;;1.95;;
27127;SDS011;14660;49.008;8.390;2022-10-16T04:56:14;3.15;;;1.88;;
27127;SDS011;14660;49.008;8.390;2022-10-16T04:58:40;3.83;;;1.67;;
27127;SDS011;14660;49.008;8.390;2022-10-16T05:01:07;3.40;;;1.77;;
27127;SDS011;14660;49.008;8.390;2022-10-16T05:03:32;4.15;;;1.83;;
27127;SDS011;14660;49.008;8.390;2022-10-16T05:06:00;1.80;;;1.63;;
27127;SDS011;14660;49.008;8.390;2022-10-16T05:08:25;2.60;;;2.03;;
27127;SDS011;14660;49.008;8.390;2022-10-16T05:10:52;3.63;;;2.25;;
27127;SDS011;14660;49.008;8.390;2022-10-16T05:13:19;2.38;;;1.55;;
27127;SDS011;14660;49.008;8.390;2022-10-16T05:15:47;3.47;;;1.77;;
27127;SDS011;14660;49.008;8.390;2022-10-16T05:18:15;6.13;;;2.00;;
27127;SDS011;14660;49.008;8.390;2022-10-16T05:20:43;3.03;;;1.70;;
27127;SDS011;14660;49.008;8.390;2022-10-16T05:23:10;2.90;;;1.60;;
27127;SDS011;14660;49.008;8.390;2022-10-16T05:25:38;3.00;;;1.77;;
27127;SDS011;14660;49.008;8.390;2022-10-16T05:28:05;2.85;;;2.00;;
27127;SDS011;14660;49.008;8.390;2022-10-16T05:30:30;3.92;;;1.80;;
27127;SDS011;14660;49.008;8.390;2022-10-16T05:32:58;3.45;;;1.42;;
27127;SDS011;14660;49.008;8.390;2022-10-16T05:35:23;6.57;;;1.50;;
27127;SDS011;14660;49.008;8.390;2022-10-16T05:37:52;2.22;;;1.02;;
27127;SDS011;14660;49.008;8.390;2022-10-16T05:40:18;1.88;;;1.30;;
27127;SDS011;14660;49.008;8.390;2022-10-16T05:42:43;2.70;;;1.55;;
27127;SDS011;14660;49.008;8.390;2022-10-16T05:45:09;4.20;;;1.55;;
27127;SDS011;14660;49.008;8.390;2022-10-16T05:47:36;5.40;;;1.42;;
27127;SDS011;14660;49.008;8.390;2022-10-16T05:50:04;2.92;;;1.58;;
27127;SDS011;14660;49.008;8.390;2022-10-16T05:52:32;3.15;;;2.17;;
27127;SDS011;14660;49.008;8.390;2022-10-16T05:55:02;3.15;;;1.70;;
27127;SDS011;14660;49.008;8.390;2022-10-16T05:57:29;2.30;;;1.88;;
27127;SDS011;14660;49.008;8.390;2022-10-16T05:59:56;2.38;;;1.30;;
27127;SDS011;14660;49.008;8.390;2022-10-16T06:02:23;6.38;;;1.50;;
27127;SDS011;14660;49.008;8.390;2022-10-16T06:04:51;2.97;;;2.15;;
27127;SDS011;14660;49.008;8.390;2022-10-16T06:07:18;4.53;;;2.20;;
27127;SDS011;14660;49.008;8.390;2022-10-16T06:09:50;3.85;;;1.60;;
27127;SDS011;14660;49.008;8.390;2022-10-16T06:12:27;4.05;;;1.58;;
27127;SDS011;14660;49.008;8.390;2022-10-16T06:14:55;2.58;;;1.65;;
27127;SDS011;14660;49.008;8.390;2022-10-16T06:17:21;5.20;;;1.58;;
27127;SDS011;14660;49.008;8.390;2022-10-16T06:19:48;3.70;;;1.60;;
27127;SDS011;14660;49.008;8.390;2022-10-16T06:22:14;3.40;;;1.45;;
27127;SDS011;14660;49.008;8.390;2022-10-16T06:24:41;2.75;;;1.45;;
27127;SDS011;14660;49.008;8.390;2022-10-16T06:27:08;1.77;;;1.23;;
27127;SDS011;14660;49.008;8.390;2022-10-16T06:29:36;3.45;;;1.58;;
27127;SDS011;14660;49.008;8.390;2022-10-16T06:32:13;5.60;;;1.95;;
27127;SDS011;14660;49.008;8.390;2022-10-16T06:34:40;4.13;;;1.23;;
27127;SDS011;14660;49.008;8.390;2022-10-16T06:37:09;7.82;;;2.17;;
27127;SDS011;14660;49.008;8.390;2022-10-16T06:39:36;5.32;;;1.48;;
27127;SDS011;14660;49.008;8.390;2022-10-16T06:42:01;3.50;;;1.60;;
27127;SDS011;14660;49.008;8.390;2022-10-16T06:44:29;1.73;;;1.10;;
27127;SDS011;14660;49.008;8.390;2022-10-16T06:46:56;2.70;;;1.27;;
27127;SDS011;14660;49.008;8.390;2022-10-16T06:49:24;7.60;;;1.30;;
27127;SDS011;14660;49.008;8.390;2022-10-16T06:51:52;2.58;;;1.90;;
27127;SDS011;14660;49.008;8.390;2022-10-16T06:54:31;4.55;;;1.20;;
27127;SDS011;14660;49.008;8.390;2022-10-16T06:56:59;1.77;;;1.10;;
27127;SDS011;14660;49.008;8.390;2022-10-16T06:59:37;3.13;;;1.40;;
27127;SDS011;14660;49.008;8.390;2022-10-16T07:02:04;1.30;;;1.15;;
27127;SDS011;14660;49.008;8.390;2022-10-16T07:04:35;2.58;;;1.25;;
27127;SDS011;14660;49.008;8.390;2022-10-16T07:07:02;6.18;;;1.20;;
27127;SDS011;14660;49.008;8.390;2022-10-16T07:09:29;4.53;;;1.52;;
27127;SDS011;14660;49.008;8.390;2022-10-16T07:11:56;1.45;;;1.00;;
27127;SDS011;14660;49.008;8.390;2022-10-16T07:14:22;4.47;;;1.10;;
27127;SDS011;14660;49.008;8.390;2022-10-16T07:16:49;2.28;;;1.40;;
27127;SDS011;14660;49.008;8.390;2022-10-16T07:19:17;2.15;;;1.20;;
27127;SDS011;14660;49.008;8.390;2022-10-16T07:21:44;1.67;;;1.23;;
27127;SDS011;14660;49.008;8.390;2022-10-16T07:24:12;3.30;;;1.42;;
27127;SDS011;14660;49.008;8.390;2022-10-16T07:26:41;3.35;;;1.52;;
27127;SDS011;14660;49.008;8.390;2022-10-16T07:29:13;3.65;;;1.50;;
27127;SDS011;14660;49.008;8.390;2022-10-16T07:31:43;3.45;;;1.50;;
27127;SDS011;14660;49.008;8.390;2022-10-16T07:34:11;2.53;;;1.08;;
27127;SDS011;14660;49.008;8.390;2022-10-16T07:36:40;4.53;;;1.50;;
27127;SDS011;14660;49.008;8.390;2022-10-16T07:39:07;4.40;;;1.63;;
27127;SDS011;14660;49.008;8.390;2022-10-16T07:41:36;6.28;;;1.55;;
27127;SDS011;14660;49.008;8.390;2022-10-16T07:44:04;3.03;;;1.38;;
27127;SDS011;14660;49.008;8.390;2022-10-16T07:46:31;3.00;;;1.55;;
27127;SDS011;14660;49.008;8.390;2022-10-16T07:49:00;3.90;;;1.60;;
27127;SDS011;14660;49.008;8.390;2022-10-16T07:51:28;1.52;;;1.20;;
27127;SDS011;14660;49.008;8.390;2022-10-16T07:53:58;1.73;;;1.52;;
27127;SDS011;14660;49.008;8.390;2022-10-16T07:56:25;6.57;;;1.90;;
27127;SDS011;14660;49.008;8.390;2022-10-16T07:58:52;2.90;;;1.52;;
27127;SDS011;14660;49.008;8.390;2022-10-16T08:01:19;3.33;;;1.05;;
27127;SDS011;14660;49.008;8.390;2022-10-16T08:03:48;2.45;;;1.35;;
27127;SDS011;14660;49.008;8.390;2022-10-16T08:06:18;4.25;;;1.63;;
27127;SDS011;14660;49.008;8.390;2022-10-16T08:08:46;3.22;;;1.75;;
27127;SDS011;14660;49.008;8.390;2022-10-16T08:11:14;1.73;;;1.02;;
27127;SDS011;14660;49.008;8.390;2022-10-16T08:13:41;2.83;;;1.42;;
27127;SDS011;14660;49.008;8.390;2022-10-16T08:16:08;3.33;;;1.17;;
27127;SDS011;14660;49.008;8.390;2022-10-16T08:18:40;2.22;;;0.80;;
27127;SDS011;14660;49.008;8.390;2022-10-16T08:21:06;1.63;;;1.20;;
27127;SDS011;14660;49.008;8.390;2022-10-16T08:23:34;3.17;;;1.10;;
27127;SDS011;14660;49.008;8.390;2022-10-16T08:26:06;5.15;;;1.65;;
27127;SDS011;14660;49.008;8.390;2022-10-16T08:28:34;5.47;;;1.58;;
27127;SDS011;14660;49.008;8.390;2022-10-16T08:31:09;2.55;;;1.48;;
27127;SDS011;14660;49.008;8.390;2022-10-16T08:33:55;2.88;;;1.13;;
27127;SDS011;14660;49.008;8.390;2022-10-16T08:36:21;3.45;;;1.35;;
27127;SDS011;14660;49.008;8.390;2022-10-16T08:38:51;3.78;;;1.50;;
27127;SDS011;14660;49.008;8.390;2022-10-16T08:42:06;2.60;;;1.30;;
27127;SDS011;14660;49.008;8.390;2022-10-16T08:47:35;3.22;;;0.70;;
27127;SDS011;14660;49.008;8.390;2022-10-16T08:50:25;1.90;;;1.40;;
27127;SDS011;14660;49.008;8.390;2022-10-16T08:52:54;2.42;;;1.00;;
27127;SDS011;14660;49.008;8.390;2022-10-16T08:58:17;5.85;;;1.33;;
27127;SDS011;14660;49.008;8.390;2022-10-16T09:00:50;2.60;;;1.42;;
27127;SDS011;14660;49.008;8.390;2022-10-16T09:18:40;2.03;;;1.38;;
27127;SDS011;14660;49.008;8.390;2022-10-16T09:21:35;3.45;;;1.35;;
27127;SDS011;14660;49.008;8.390;2022-10-16T09:26:51;4.13;;;1.52;;
27127;SDS011;14660;49.008;8.390;2022-10-16T09:29:19;5.00;;;1.88;;
27127;SDS011;14660;49.008;8.390;2022-10-16T09:34:34;3.28;;;1.30;;
27127;SDS011;14660;49.008;8.390;2022-10-16T09:37:05;3.45;;;1.30;;
27127;SDS011;14660;49.008;8.390;2022-10-16T09:39:44;1.88;;;1.10;;
27127;SDS011;14660;49.008;8.390;2022-10-16T09:42:20;3.33;;;1.77;;
27127;SDS011;14660;49.008;8.390;2022-10-16T09:44:51;4.57;;;2.05;;
27127;SDS011;14660;49.008;8.390;2022-10-16T09:49:56;1.88;;;1.20;;
27127;SDS011;14660;49.008;8.390;2022-10-16T09:52:31;4.20;;;1.52;;
27127;SDS011;14660;49.008;8.390;2022-10-16T09:55:00;2.22;;;1.23;;
27127;SDS011;14660;49.008;8.390;2022-10-16T09:57:28;2.97;;;1.50;;
27127;SDS011;14660;49.008;8.390;2022-10-16T09:59:56;4.53;;;1.50;;
27127;SDS011;14660;49.008;8.390;2022-10-16T10:02:36;5.88;;;2.58;;
27127;SDS011;14660;49.008;8.390;2022-10-16T10:05:04;3.55;;;1.52;;
27127;SDS011;14660;49.008;8.390;2022-10-16T10:07:42;1.50;;;1.10;;
27127;SDS011;14660;49.008;8.390;2022-10-16T10:10:22;6.25;;;2.15;;
27127;SDS011;14660;49.008;8.390;2022-10-16T10:13:21;4.10;;;1.70;;
27127;SDS011;14660;49.008;8.390;2022-10-16T10:15:51;3.15;;;1.10;;
27127;SDS011;14660;49.008;8.390;2022-10-16T10:18:29;2.72;;;1.38;;
27127;SDS011;14660;49.008;8.390;2022-10-16T10:21:00;1.75;;;1.30;;
27127;SDS011;14660;49.008;8.390;2022-10-16T10:23:36;1.73;;;1.42;;
27127;SDS011;14660;49.008;8.390;2022-10-16T10:26:07;2.35;;;1.25;;
27127;SDS011;14660;49.008;8.390;2022-10-16T10:34:45;3.67;;;1.63;;
27127;SDS011;14660;49.008;8.390;2022-10-16T10:37:55;2.75;;;1.60;;
27127;SDS011;14660;49.008;8.390;2022-10-16T11:10:57;2.53;;;1.52;;
27127;SDS011;14660;49.008;8.390;2022-10-16T11:14:04;3.95;;;1.35;;
27127;SDS011;14660;49.008;8.390;2022-10-16T11:16:50;4.10;;;1.80;;
27127;SDS011;14660;49.008;8.390;2022-10-16T11:19:58;6.30;;;1.60;;
27127;SDS011;14660;49.008;8.390;2022-10-16T11:22:51;4.38;;;1.90;;
27127;SDS011;14660;49.008;8.390;2022-10-16T11:25:36;3.58;;;1.40;;
27127;SDS011;14660;49.008;8.390;2022-10-16T11:28:22;2.35;;;1.48;;
27127;SDS011;14660;49.008;8.390;2022-10-16T11:31:11;1.90;;;0.98;;
27127;SDS011;14660;49.008;8.390;2022-10-16T11:39:54;4.47;;;2.28;;
27127;SDS011;14660;49.008;8.390;2022-10-16T11:42:37;5.53;;;1.70;;
27127;SDS011;14660;49.008;8.390;2022-10-16T11:57:17;3.25;;;1.65;;
27127;SDS011;14660;49.008;8.390;2022-10-16T11:59:52;2.40;;;1.67;;
27127;SDS011;14660;49.008;8.390;2022-10-16T12:08:38;4.13;;;1.60;;
27127;SDS011;14660;49.008;8.390;2022-10-16T12:11:08;1.95;;;1.17;;
27127;SDS011;14660;49.008;8.390;2022-10-16T12:13:48;16.45;;;1.67;;
27127;SDS011;14660;49.008;8.390;2022-10-16T12:19:12;3.10;;;1.42;;
27127;SDS011;14660;49.008;8.390;2022-10-16T12:21:42;6.45;;;1.20;;
27127;SDS011;14660;49.008;8.390;2022-10-16T12:27:20;4.03;;;1.25;;
27127;SDS011;14660;49.008;8.390;2022-10-16T12:29:59;2.58;;;1.17;;
27127;SDS011;14660;49.008;8.390;2022-10-16T12:35:20;1.73;;;1.17;;
27127;SDS011;14660;49.008;8.390;2022-10-16T12:38:07;3.38;;;1.73;;
27127;SDS011;14660;49.008;8.390;2022-10-16T12:40:41;2.67;;;1.30;;
27127;SDS011;14660;49.008;8.390;2022-10-16T12:46:02;2.72;;;1.48;;
27127;SDS011;14660;49.008;8.390;2022-10-16T12:48:31;1.45;;;1.13;;
27127;SDS011;14660;49.008;8.390;2022-10-16T12:51:09;6.80;;;1.50;;
27127;SDS011;14660;49.008;8.390;2022-10-16T12:54:31;2.15;;;1.08;;
27127;SDS011;14660;49.008;8.390;2022-10-16T12:57:24;3.30;;;1.20;;
27127;SDS011;14660;49.008;8.390;2022-10-16T13:09:19;2.20;;;1.20;;
27127;SDS011;14660;49.008;8.390;2022-10-16T13:21:26;1.77;;;1.33;;
27127;SDS011;14660;49.008;8.390;2022-10-16T13:36:28;1.63;;;1.20;;
27127;SDS011;14660;49.008;8.390;2022-10-16T13:39:11;2.90;;;1.20;;
27127;SDS011;14660;49.008;8.390;2022-10-16T13:45:00;2.65;;;1.50;;
27127;SDS011;14660;49.008;8.390;2022-10-16T13:47:28;1.80;;;1.30;;
27127;SDS011;14660;49.008;8.390;2022-10-16T13:52:43;3.13;;;1.58;;
27127;SDS011;14660;49.008;8.390;2022-10-16T13:55:16;2.20;;;1.20;;
27127;SDS011;14660;49.008;8.390;2022-10-16T13:57:44;3.13;;;1.40;;
27127;SDS011;14660;49.008;8.390;2022-10-16T14:00:19;3.42;;;1.30;;
27127;SDS011;14660;49.008;8.390;2022-10-16T14:02:58;2.20;;;0.90;;
27127;SDS011;14660;49.008;8.390;2022-10-16T14:05:51;4.65;;;1.60;;
27127;SDS011;14660;49.008;8.390;2022-10-16T14:08:24;2.40;;;1.48;;
27127;SDS011;14660;49.008;8.390;2022-10-16T14:10:57;2.42;;;1.70;;
27127;SDS011;14660;49.008;8.390;2022-10-16T14:13:33;3.55;;;2.00;;
27127;SDS011;14660;49.008;8.390;2022-10-16T14:16:06;3.03;;;1.55;;
27127;SDS011;14660;49.008;8.390;2022-10-16T14:18:34;5.15;;;2.15;;
27127;SDS011;14660;49.008;8.390;2022-10-16T14:21:05;2.85;;;2.25;;
27127;SDS011;14660;49.008;8.390;2022-10-16T14:23:37;3.35;;;1.50;;
27127;SDS011;14660;49.008;8.390;2022-10-16T14:31:41;3.30;;;1.98;;
27127;SDS011;14660;49.008;8.390;2022-10-16T14:39:51;2.50;;;1.40;;
27127;SDS011;14660;49.008;8.390;2022-10-16T14:42:20;2.00;;;1.75;;
27127;SDS011;14660;49.008;8.390;2022-10-16T14:44:49;5.50;;;1.83;;
27127;SDS011;14660;49.008;8.390;2022-10-16T14:47:19;3.63;;;1.70;;
27127;SDS011;14660;49.008;8.390;2022-10-16T14:49:53;6.20;;;2.15;;
27127;SDS011;14660;49.008;8.390;2022-10-16T14:52:22;3.15;;;1.92;;
27127;SDS011;14660;49.008;8.390;2022-10-16T14:54:49;2.67;;;1.50;;
27127;SDS011;14660;49.008;8.390;2022-10-16T14:57:22;5.72;;;2.88;;
27127;SDS011;14660;49.008;8.390;2022-10-16T14:59:52;3.47;;;1.70;;
27127;SDS011;14660;49.008;8.390;2022-10-16T15:07:53;5.07;;;1.77;;
27127;SDS011;14660;49.008;8.390;2022-10-16T15:10:22;3.78;;;2.20;;
27127;SDS011;14660;49.008;8.390;2022-10-16T15:12:49;3.92;;;1.90;;
27127;SDS011;14660;49.008;8.390;2022-10-16T15:18:21;6.45;;;2.70;;
27127;SDS011;14660;49.008;8.390;2022-10-16T15:20:50;4.32;;;3.08;;
27127;SDS011;14660;49.008;8.390;2022-10-16T15:23:20;4.22;;;3.35;;
27127;SDS011;14660;49.008;8.390;2022-10-16T15:25:52;8.55;;;3.63;;
27127;SDS011;14660;49.008;8.390;2022-10-16T15:28:21;4.38;;;3.03;;
27127;SDS011;14660;49.008;8.390;2022-10-16T15:30:49;4.30;;;2.97;;
27127;SDS011;14660;49.008;8.390;2022-10-16T15:33:18;16.08;;;5.28;;
27127;SDS011;14660;49.008;8.390;2022-10-16T15:36:00;9.63;;;6.28;;
27127;SDS011;14660;49.008;8.390;2022-10-16T15:38:27;10.40;;;6.05;;
27127;SDS011;14660;49.008;8.390;2022-10-16T15:40:56;12.27;;;7.72;;
27127;SDS011;14660;49.008;8.390;2022-10-16T15:43:30;16.98;;;9.75;;
27127;SDS011;14660;49.008;8.390;2022-10-16T15:46:06;14.48;;;10.02;;
27127;SDS011;14660;49.008;8.390;2022-10-16T15:48:36;11.60;;;7.07;;
27127;SDS011;14660;49.008;8.390;2022-10-16T15:51:07;15.55;;;7.68;;
27127;SDS011;14660;49.008;8.390;2022-10-16T15:53:35;12.80;;;5.93;;
27127;SDS011;14660;49.008;8.390;2022-10-16T15:56:04;8.73;;;5.15;;
27127;SDS011;14660;49.008;8.390;2022-10-16T15:58:31;7.07;;;3.30;;
27127;SDS011;14660;49.008;8.390;2022-10-16T16:01:00;6.93;;;4.03;;
27127;SDS011;14660;49.008;8.390;2022-10-16T16:03:32;3.95;;;2.80;;
27127;SDS011;14660;49.008;8.390;2022-10-16T16:06:03;4.75;;;2.42;;
27127;SDS011;14660;49.008;8.390;2022-10-16T16:08:30;4.38;;;2.40;;
27127;SDS011;14660;49.008;8.390;2022-10-16T16:11:03;5.78;;;2.42;;
27127;SDS011;14660;49.008;8.390;2022-10-16T16:13:38;3.95;;;1.95;;
27127;SDS011;14660;49.008;8.390;2022-10-16T16:16:09;3.85;;;1.77;;
27127;SDS011;14660;49.008;8.390;2022-10-16T16:18:40;3.72;;;1.95;;
27127;SDS011;14660;49.008;8.390;2022-10-16T16:21:09;5.38;;;1.88;;
27127;SDS011;14660;49.008;8.390;2022-10-16T16:23:38;8.43;;;4.53;;
27127;SDS011;14660;49.008;8.390;2022-10-16T16:29:13;5.75;;;2.03;;
27127;SDS011;14660;49.008;8.390;2022-10-16T16:31:41;3.28;;;2.15;;
27127;SDS011;14660;49.008;8.390;2022-10-16T16:34:14;3.70;;;2.10;;
27127;SDS011;14660;49.008;8.390;2022-10-16T16:36:41;3.58;;;2.30;;
27127;SDS011;14660;49.008;8.390;2022-10-16T16:39:09;3.40;;;2.13;;
27127;SDS011;14660;49.008;8.390;2022-10-16T16:41:37;3.22;;;2.00;;
27127;SDS011;14660;49.008;8.390;2022-10-16T16:44:05;5.40;;;2.38;;
27127;SDS011;14660;49.008;8.390;2022-10-16T16:46:35;6.43;;;2.53;;
27127;SDS011;14660;49.008;8.390;2022-10-16T16:49:02;8.05;;;5.50;;
27127;SDS011;14660;49.008;8.390;2022-10-16T16:51:30;13.00;;;8.52;;
27127;SDS011;14660;49.008;8.390;2022-10-16T16:53:57;13.07;;;7.78;;
27127;SDS011;14660;49.008;8.390;2022-10-16T16:56:25;11.23;;;7.18;;
27127;SDS011;14660;49.008;8.390;2022-10-16T16:58:55;8.60;;;6.05;;
27127;SDS011;14660;49.008;8.390;2022-10-16T17:01:23;8.95;;;5.82;;
27127;SDS011;14660;49.008;8.390;2022-10-16T17:03:52;8.48;;;5.50;;
27127;SDS011;14660;49.008;8.390;2022-10-16T17:06:21;9.07;;;5.85;;
27127;SDS011;14660;49.008;8.390;2022-10-16T17:08:50;12.52;;;8.38;;
27127;SDS011;14660;49.008;8.390;2022-10-16T17:11:18;15.23;;;8.57;;
27127;SDS011;14660;49.008;8.390;2022-10-16T17:13:47;21.80;;;12.55;;
27127;SDS011;14660;49.008;8.390;2022-10-16T17:16:15;17.27;;;11.10;;
27127;SDS011;14660;49.008;8.390;2022-10-16T17:18:45;16.42;;;9.10;;
27127;SDS011;14660;49.008;8.390;2022-10-16T17:21:12;14.70;;;8.90;;
27127;SDS011;14660;49.008;8.390;2022-10-16T17:23:39;14.68;;;8.43;;
27127;SDS011;14660;49.008;8.390;2022-10-16T17:26:05;14.93;;;8.77;;
27127;SDS011;14660;49.008;8.390;2022-10-16T17:28:33;12.30;;;7.32;;
27127;SDS011;14660;49.008;8.390;2022-10-16T17:31:20;13.13;;;7.22;;
27127;SDS011;14660;49.008;8.390;2022-10-16T17:33:47;10.77;;;5.80;;
27127;SDS011;14660;49.008;8.390;2022-10-16T17:36:13;8.18;;;5.22;;
27127;SDS011;14660;49.008;8.390;2022-10-16T17:38:41;12.20;;;6.10;;
27127;SDS011;14660;49.008;8.390;2022-10-16T17:43:54;6.43;;;4.63;;
27127;SDS011;14660;49.008;8.390;2022-10-16T17:46:21;8.20;;;5.53;;
27127;SDS011;14660;49.008;8.390;2022-10-16T17:48:51;13.65;;;7.25;;
27127;SDS011;14660;49.008;8.390;2022-10-16T17:51:29;8.85;;;5.28;;
27127;SDS011;14660;49.008;8.390;2022-10-16T17:53:59;9.38;;;6.15;;
27127;SDS011;14660;49.008;8.390;2022-10-16T17:56:27;16.67;;;7.78;;
27127;SDS011;14660;49.008;8.390;2022-10-16T17:58:56;16.55;;;7.05;;
27127;SDS011;14660;49.008;8.390;2022-10-16T18:01:31;10.03;;;7.13;;
27127;SDS011;14660;49.008;8.390;2022-10-16T18:06:27;8.68;;;6.30;;
27127;SDS011;14660;49.008;8.390;2022-10-16T18:09:04;13.40;;;7.20;;
27127;SDS011;14660;49.008;8.390;2022-10-16T18:11:32;17.70;;;8.57;;
27127;SDS011;14660;49.008;8.390;2022-10-16T18:14:00;13.10;;;8.05;;
27127;SDS011;14660;49.008;8.390;2022-10-16T18:16:29;14.98;;;7.65;;
27127;SDS011;14660;49.008;8.390;2022-10-16T18:19:01;9.70;;;6.15;;
27127;SDS011;14660;49.008;8.390;2022-10-16T18:21:27;7.65;;;4.97;;
27127;SDS011;14660;49.008;8.390;2022-10-16T18:23:54;9.50;;;5.78;;
27127;SDS011;14660;49.008;8.390;2022-10-16T18:26:24;9.13;;;5.30;;